createdAt,value
2022-10-29T00:02:10.239Z,10.32
2022-10-29T00:04:40.984Z,10.55
2022-10-29T00:07:11.775Z,8.63
2022-10-29T00:09:42.932Z,12.80
2022-10-29T00:12:16.316Z,9.85
2022-10-29T00:14:47.811Z,10.43
2022-10-29T00:17:19.627Z,13.27
2022-10-29T00:19:51.156Z,13.77
2022-10-29T00:22:22.672Z,14.07
2022-10-29T00:24:53.746Z,10.30
2022-10-29T00:27:27.492Z,11.35
2022-10-29T00:29:58.440Z,13.02
2022-10-29T00:32:29.440Z,11.85
2022-10-29T00:35:00.508Z,14.90
2022-10-29T00:37:31.292Z,10.45
2022-10-29T00:40:02.229Z,13.95
2022-10-29T00:42:35.916Z,9.40
2022-10-29T00:45:07.199Z,12.55
2022-10-29T00:47:40.381Z,11.82
2022-10-29T00:50:16.544Z,11.52
2022-10-29T00:52:50.829Z,12.27
2022-10-29T00:55:23.203Z,13.20
2022-10-29T00:57:59.159Z,12.90
2022-10-29T01:00:31.140Z,14.13
2022-10-29T01:03:02.580Z,11.77
2022-10-29T01:05:34.847Z,13.02
2022-10-29T01:08:06.789Z,9.88
2022-10-29T01:10:52.842Z,11.05
2022-10-29T01:13:39.927Z,11.18
2022-10-29T01:16:18.991Z,14.75
2022-10-29T01:18:58.972Z,8.05
2022-10-29T01:21:42.933Z,9.63
2022-10-29T01:24:43.440Z,13.75
2022-10-29T01:27:42.955Z,15.52
2022-10-29T01:30:24.178Z,13.27
2022-10-29T01:33:10.304Z,13.45
2022-10-29T01:35:51.580Z,12.77
2022-10-29T01:38:28.480Z,13.35
2022-10-29T01:43:38.897Z,9.43
2022-10-29T01:46:16.270Z,16.38
2022-10-29T01:48:54.906Z,15.85
2022-10-29T01:51:29.741Z,12.60
2022-10-29T01:54:02.220Z,13.27
2022-10-29T01:56:33.427Z,9.80
2022-10-29T01:59:14.454Z,15.05
2022-10-29T02:02:05.087Z,11.65
2022-10-29T02:04:57.665Z,8.18
2022-10-29T02:07:42.481Z,16.70
2022-10-29T02:10:21.246Z,13.95
2022-10-29T02:12:55.198Z,13.35
2022-10-29T02:15:29.734Z,10.57
2022-10-29T02:18:03.429Z,12.60
2022-10-29T02:20:37.449Z,12.07
2022-10-29T02:23:08.645Z,14.70
2022-10-29T02:25:39.859Z,9.52
2022-10-29T02:28:11.105Z,10.55
2022-10-29T02:30:41.919Z,11.32
2022-10-29T02:33:12.805Z,12.65
2022-10-29T02:35:46.312Z,13.25
2022-10-29T02:38:17.518Z,13.65
2022-10-29T02:40:48.452Z,10.02
2022-10-29T02:46:17.834Z,11.30
2022-10-29T02:48:49.283Z,15.63
2022-10-29T02:51:23.494Z,10.88
2022-10-29T02:53:54.842Z,15.07
2022-10-29T02:56:25.564Z,12.55
2022-10-29T02:58:56.326Z,10.27
2022-10-29T03:01:27.263Z,13.35
2022-10-29T03:03:58.466Z,13.07
2022-10-29T03:06:32.451Z,9.88
2022-10-29T03:09:03.434Z,9.07
2022-10-29T03:11:34.323Z,10.25
2022-10-29T03:14:05.349Z,10.63
2022-10-29T03:16:36.233Z,12.18
2022-10-29T03:19:07.404Z,11.60
2022-10-29T03:21:41.037Z,10.55
2022-10-29T03:24:11.918Z,14.43
2022-10-29T03:26:42.662Z,10.00
2022-10-29T03:29:13.640Z,15.95
2022-10-29T03:31:44.387Z,9.88
2022-10-29T03:34:15.228Z,12.25
2022-10-29T03:36:49.289Z,14.27
2022-10-29T03:39:20.096Z,9.13
2022-10-29T03:41:51.058Z,14.65
2022-10-29T03:44:21.769Z,11.15
2022-10-29T03:46:52.867Z,11.35
2022-10-29T03:49:24.083Z,12.45
2022-10-29T03:51:57.943Z,9.18
2022-10-29T03:54:28.944Z,11.23
2022-10-29T03:56:59.892Z,16.85
2022-10-29T03:59:30.890Z,11.93
2022-10-29T04:02:01.962Z,11.55
2022-10-29T04:04:33.116Z,11.88
2022-10-29T04:07:06.752Z,13.20
2022-10-29T04:09:37.470Z,8.85
2022-10-29T04:12:09.078Z,15.32
2022-10-29T04:14:44.529Z,13.77
2022-10-29T04:19:47.349Z,13.43
2022-10-29T04:28:42.617Z,17.90
2022-10-29T04:30:54.612Z,13.85
2022-10-29T04:33:25.634Z,9.93
2022-10-29T04:35:57.851Z,13.10
2022-10-29T04:38:31.197Z,12.35
2022-10-29T04:41:02.510Z,14.30
2022-10-29T04:43:33.711Z,13.00
2022-10-29T04:46:04.478Z,17.60
2022-10-29T04:48:35.249Z,13.68
2022-10-29T04:51:06.178Z,17.50
2022-10-29T04:53:39.971Z,16.90
2022-10-29T04:56:11.302Z,11.50
2022-10-29T04:58:42.232Z,15.38
2022-10-29T05:01:13.364Z,15.48
2022-10-29T05:03:44.459Z,12.60
2022-10-29T05:06:15.215Z,15.43
2022-10-29T05:08:48.535Z,14.90
2022-10-29T05:11:19.492Z,18.83
2022-10-29T05:13:50.498Z,16.38
2022-10-29T05:16:21.401Z,14.18
2022-10-29T05:18:52.538Z,20.95
2022-10-29T05:21:23.325Z,18.48
2022-10-29T05:23:56.696Z,13.80
2022-10-29T05:26:27.623Z,15.10
2022-10-29T05:28:58.609Z,16.23
2022-10-29T05:31:29.366Z,10.32
2022-10-29T05:34:00.484Z,16.77
2022-10-29T05:36:31.474Z,15.60
2022-10-29T05:39:05.573Z,19.42
2022-10-29T05:41:36.933Z,15.30
2022-10-29T05:44:08.470Z,18.27
2022-10-29T05:46:39.528Z,18.00
2022-10-29T05:49:12.411Z,17.42
2022-10-29T05:51:43.123Z,15.18
2022-10-29T05:54:16.441Z,12.55
2022-10-29T05:56:47.550Z,15.57
2022-10-29T05:59:18.480Z,16.48
2022-10-29T06:01:49.572Z,19.42
2022-10-29T06:04:20.652Z,14.38
2022-10-29T06:06:51.421Z,18.15
2022-10-29T06:09:25.065Z,20.05
2022-10-29T06:11:57.462Z,14.38
2022-10-29T06:14:28.234Z,12.77
2022-10-29T06:16:59.335Z,16.73
2022-10-29T06:19:30.241Z,13.43
2022-10-29T06:22:01.040Z,10.70
2022-10-29T06:24:35.171Z,16.33
2022-10-29T06:27:06.136Z,17.60
2022-10-29T06:29:37.376Z,15.45
2022-10-29T06:32:08.517Z,17.05
2022-10-29T06:34:39.591Z,16.50
2022-10-29T06:37:10.312Z,18.88
2022-10-29T06:39:44.168Z,12.65
2022-10-29T06:42:15.101Z,14.10
2022-10-29T06:44:46.027Z,15.55
2022-10-29T06:47:16.819Z,15.63
2022-10-29T06:49:47.548Z,14.73
2022-10-29T06:52:18.569Z,13.45
2022-10-29T06:54:52.497Z,16.95
2022-10-29T06:57:25.638Z,15.48
2022-10-29T06:59:56.861Z,13.63
2022-10-29T07:02:28.249Z,15.80
2022-10-29T07:04:59.058Z,18.23
2022-10-29T07:07:32.073Z,17.23
2022-10-29T07:10:05.586Z,16.85
2022-10-29T07:12:42.096Z,14.38
2022-10-29T07:15:14.406Z,10.90
2022-10-29T07:17:45.898Z,15.95
2022-10-29T07:20:17.464Z,12.85
2022-10-29T07:22:51.531Z,14.55
2022-10-29T07:25:25.114Z,13.57
2022-10-29T07:27:56.678Z,14.10
2022-10-29T07:30:31.761Z,15.75
2022-10-29T07:33:02.562Z,16.48
2022-10-29T07:35:33.793Z,13.05
2022-10-29T07:38:10.923Z,17.02
2022-10-29T07:40:51.765Z,18.58
2022-10-29T07:43:24.832Z,21.90
2022-10-29T07:45:56.432Z,18.58
2022-10-29T07:48:28.360Z,17.85
2022-10-29T07:51:02.603Z,17.30
2022-10-29T07:53:34.429Z,11.88
2022-10-29T07:56:08.834Z,20.27
2022-10-29T07:58:40.821Z,17.40
2022-10-29T08:01:12.834Z,17.42
2022-10-29T08:03:45.116Z,17.38
2022-10-29T08:06:16.518Z,14.88
2022-10-29T08:08:47.601Z,14.00
2022-10-29T08:11:21.170Z,15.95
2022-10-29T08:13:53.296Z,17.35
2022-10-29T08:16:24.603Z,16.55
2022-10-29T08:18:56.189Z,16.30
2022-10-29T08:21:28.104Z,22.20
2022-10-29T08:23:59.574Z,23.73
2022-10-29T08:26:36.230Z,14.05
2022-10-29T08:29:07.647Z,17.75
2022-10-29T08:31:38.957Z,15.80
2022-10-29T08:34:11.242Z,17.55
2022-10-29T08:36:44.389Z,17.83
2022-10-29T08:39:15.495Z,16.10
2022-10-29T08:42:00.413Z,18.05
2022-10-29T08:45:01.815Z,22.25
2022-10-29T08:47:41.540Z,22.80
2022-10-29T08:50:23.789Z,11.70
2022-10-29T08:53:21.806Z,16.45
2022-10-29T08:55:47.574Z,15.23
2022-10-29T08:58:31.231Z,16.83
2022-10-29T09:01:02.892Z,16.67
2022-10-29T09:03:34.325Z,19.08
2022-10-29T09:06:13.822Z,20.88
2022-10-29T09:09:13.896Z,15.73
2022-10-29T09:11:59.291Z,17.52
2022-10-29T09:14:54.291Z,18.50
2022-10-29T09:17:33.894Z,20.55
2022-10-29T09:20:26.441Z,18.55
2022-10-29T09:23:07.972Z,19.65
2022-10-29T09:25:49.390Z,14.55
2022-10-29T09:28:34.016Z,20.60
2022-10-29T09:31:14.515Z,15.38
2022-10-29T09:33:48.456Z,14.43
2022-10-29T09:36:23.157Z,15.13
2022-10-29T09:38:59.634Z,18.30
2022-10-29T09:41:34.844Z,12.23
2022-10-29T09:44:10.953Z,14.70
2022-10-29T09:46:53.380Z,17.23
2022-10-29T09:49:38.352Z,16.08
2022-10-29T09:52:13.412Z,14.02
2022-10-29T09:54:44.198Z,15.55
2022-10-29T09:57:22.424Z,13.88
2022-10-29T09:59:57.055Z,14.13
2022-10-29T10:02:36.510Z,12.60
2022-10-29T10:05:10.744Z,13.85
2022-10-29T10:07:42.046Z,15.77
2022-10-29T10:10:24.047Z,16.88
2022-10-29T10:12:55.264Z,17.75
2022-10-29T10:15:33.473Z,14.60
2022-10-29T10:18:22.368Z,13.00
2022-10-29T10:21:06.862Z,16.65
2022-10-29T10:23:45.868Z,17.25
2022-10-29T10:26:44.547Z,13.07
2022-10-29T10:29:18.237Z,19.90
2022-10-29T10:31:50.389Z,11.70
2022-10-29T10:34:26.017Z,14.50
2022-10-29T10:36:59.263Z,23.70
2022-10-29T10:39:33.958Z,17.65
2022-10-29T10:42:07.397Z,13.93
2022-10-29T10:44:38.832Z,11.57
2022-10-29T10:47:10.490Z,17.10
2022-10-29T10:49:43.939Z,15.07
2022-10-29T10:52:20.737Z,13.07
2022-10-29T10:54:59.576Z,18.70
2022-10-29T10:57:35.518Z,10.52
2022-10-29T11:00:10.289Z,12.10
2022-10-29T11:02:49.434Z,12.30
2022-10-29T11:05:24.952Z,14.50
2022-10-29T11:08:04.223Z,10.30
2022-10-29T11:10:40.599Z,16.27
2022-10-29T11:13:17.234Z,11.75
2022-10-29T11:15:55.237Z,14.75
2022-10-29T11:18:33.796Z,12.57
2022-10-29T11:21:15.216Z,10.70
2022-10-29T11:24:00.060Z,16.48
2022-10-29T11:26:38.074Z,10.00
2022-10-29T11:29:19.434Z,14.10
2022-10-29T11:31:56.924Z,14.65
2022-10-29T11:34:45.303Z,16.25
2022-10-29T11:37:26.674Z,9.13
2022-10-29T11:40:03.599Z,8.98
2022-10-29T11:45:05.506Z,15.32
2022-10-29T11:47:54.808Z,10.27
2022-10-29T11:50:33.537Z,10.75
2022-10-29T11:53:21.366Z,12.90
2022-10-29T11:56:02.429Z,12.82
2022-10-29T11:58:40.543Z,14.27
2022-10-29T12:01:19.469Z,14.35
2022-10-29T12:04:07.331Z,13.75
2022-10-29T12:06:45.049Z,11.07
2022-10-29T12:09:48.157Z,11.70
2022-10-29T12:12:25.276Z,16.88
2022-10-29T12:15:03.646Z,7.88
2022-10-29T12:17:38.917Z,11.93
2022-10-29T12:20:22.129Z,22.83
2022-10-29T12:23:05.077Z,14.02
2022-10-29T12:25:54.273Z,16.88
2022-10-29T12:28:32.300Z,14.13
2022-10-29T12:31:17.230Z,17.63
2022-10-29T12:33:54.844Z,15.18
2022-10-29T12:36:31.825Z,13.13
2022-10-29T12:41:42.390Z,18.98
2022-10-29T12:44:22.182Z,12.40
2022-10-29T12:47:00.755Z,20.38
2022-10-29T12:49:42.112Z,17.05
2022-10-29T12:52:20.071Z,17.00
2022-10-29T12:54:53.645Z,17.85
2022-10-29T12:57:34.932Z,15.07
2022-10-29T13:00:36.113Z,15.68
2022-10-29T13:03:07.239Z,12.98
2022-10-29T13:05:46.304Z,16.85
2022-10-29T13:08:38.125Z,13.43
2022-10-29T13:11:26.516Z,19.70
2022-10-29T13:14:04.174Z,16.60
2022-10-29T13:16:35.800Z,20.70
2022-10-29T13:19:19.015Z,16.20
2022-10-29T13:22:01.449Z,16.95
2022-10-29T13:24:32.810Z,25.75
2022-10-29T13:27:29.519Z,19.05
2022-10-29T13:30:26.360Z,17.95
2022-10-29T13:32:58.434Z,18.10
2022-10-29T13:35:44.700Z,25.00
2022-10-29T13:38:20.043Z,21.58
2022-10-29T13:44:41.362Z,19.17
2022-10-29T13:47:24.113Z,16.60
2022-10-29T13:50:03.876Z,15.13
2022-10-29T13:53:13.179Z,16.80
2022-10-29T13:55:48.135Z,19.23
2022-10-29T13:58:44.638Z,18.70
2022-10-29T14:01:30.621Z,19.95
2022-10-29T14:04:10.063Z,20.13
2022-10-29T14:06:43.147Z,24.60
2022-10-29T14:09:45.189Z,26.85
2022-10-29T14:12:21.102Z,24.63
2022-10-29T14:15:01.519Z,17.70
2022-10-29T14:17:33.192Z,27.38
2022-10-29T14:20:09.465Z,18.58
2022-10-29T14:22:42.247Z,17.85
2022-10-29T14:25:37.034Z,17.25
2022-10-29T14:28:20.354Z,20.08
2022-10-29T14:31:01.633Z,19.17
2022-10-29T14:33:35.038Z,24.40
2022-10-29T14:36:19.516Z,18.55
2022-10-29T14:38:54.130Z,20.65
2022-10-29T14:41:25.873Z,19.13
2022-10-29T14:44:06.141Z,21.13
2022-10-29T14:46:40.167Z,22.83
2022-10-29T14:49:19.025Z,20.00
2022-10-29T14:51:57.910Z,17.13
2022-10-29T14:54:31.336Z,20.50
2022-10-29T14:57:05.229Z,10.63
2022-10-29T14:59:38.743Z,10.88
2022-10-29T15:02:37.065Z,13.90
2022-10-29T15:05:27.085Z,14.13
2022-10-29T15:08:16.864Z,15.25
2022-10-29T15:10:50.108Z,11.82
2022-10-29T15:13:27.308Z,12.82
2022-10-29T15:16:01.191Z,13.43
2022-10-29T15:18:32.823Z,17.42
2022-10-29T15:21:04.550Z,13.60
2022-10-29T15:23:44.684Z,11.38
2022-10-29T15:26:23.405Z,11.07
2022-10-29T15:28:57.291Z,14.05
2022-10-29T15:31:36.717Z,12.77
2022-10-29T15:34:13.661Z,9.77
2022-10-29T15:36:53.786Z,14.38
2022-10-29T15:39:32.055Z,8.63
2022-10-29T15:42:03.893Z,7.30
2022-10-29T15:44:41.242Z,6.75
2022-10-29T15:47:31.275Z,7.68
2022-10-29T15:50:02.842Z,9.45
2022-10-29T15:52:37.294Z,6.47
2022-10-29T15:55:26.599Z,7.32
2022-10-29T15:58:03.561Z,6.43
2022-10-29T16:00:35.388Z,4.93
2022-10-29T16:03:17.761Z,8.25
2022-10-29T16:05:50.776Z,3.95
2022-10-29T16:08:28.058Z,8.82
2022-10-29T16:11:03.314Z,4.43
2022-10-29T16:13:35.742Z,6.95
2022-10-29T16:16:07.161Z,6.72
2022-10-29T16:18:38.334Z,7.85
2022-10-29T16:21:10.475Z,3.17
2022-10-29T16:23:42.004Z,8.15
2022-10-29T16:26:19.477Z,4.72
2022-10-29T16:28:50.433Z,4.82
2022-10-29T16:31:23.567Z,4.53
2022-10-29T16:33:56.730Z,3.13
2022-10-29T16:36:27.833Z,3.70
2022-10-29T16:38:59.241Z,3.78
2022-10-29T16:41:33.607Z,3.30
2022-10-29T16:44:04.662Z,3.88
2022-10-29T16:46:35.405Z,3.03
2022-10-29T16:49:06.103Z,7.20
2022-10-29T16:51:37.083Z,4.65
2022-10-29T16:54:08.138Z,3.42
2022-10-29T16:56:42.293Z,7.07
2022-10-29T16:59:13.301Z,5.90
2022-10-29T17:01:44.282Z,7.13
2022-10-29T17:04:15.312Z,4.50
2022-10-29T17:06:46.391Z,4.05
2022-10-29T17:09:21.794Z,3.60
2022-10-29T17:15:24.447Z,3.63
2022-10-29T17:17:56.733Z,6.93
2022-10-29T17:20:28.499Z,5.38
2022-10-29T17:22:59.673Z,5.43
2022-10-29T17:25:30.742Z,2.83
2022-10-29T17:28:05.436Z,6.22
2022-10-29T17:30:36.601Z,5.03
2022-10-29T17:33:07.778Z,4.10
2022-10-29T17:35:38.961Z,6.10
2022-10-29T17:38:10.122Z,5.70
2022-10-29T17:40:41.340Z,4.47
2022-10-29T17:43:15.224Z,4.13
2022-10-29T17:45:46.702Z,3.33
2022-10-29T17:48:21.012Z,3.70
2022-10-29T17:50:58.652Z,5.38
2022-10-29T17:53:30.916Z,6.18
2022-10-29T17:56:02.344Z,4.40
2022-10-29T17:58:36.013Z,9.90
2022-10-29T18:01:09.146Z,3.50
2022-10-29T18:03:40.574Z,6.38
2022-10-29T18:06:14.162Z,3.03
2022-10-29T18:08:45.981Z,5.82
2022-10-29T18:11:20.434Z,5.80
2022-10-29T18:13:54.478Z,3.97
2022-10-29T18:16:26.961Z,3.83
2022-10-29T18:19:03.178Z,4.75
2022-10-29T18:21:35.008Z,3.45
2022-10-29T18:24:06.434Z,5.35
2022-10-29T18:26:38.769Z,4.60
2022-10-29T18:29:15.296Z,3.35
2022-10-29T18:31:47.243Z,6.65
2022-10-29T18:34:18.673Z,6.97
2022-10-29T18:36:50.515Z,3.50
2022-10-29T18:39:21.789Z,4.55
2022-10-29T18:41:52.773Z,2.90
2022-10-29T18:44:26.394Z,5.22
2022-10-29T18:46:57.344Z,4.93
2022-10-29T18:49:28.390Z,5.55
2022-10-29T18:51:59.176Z,6.68
2022-10-29T18:54:30.085Z,6.80
2022-10-29T18:57:00.840Z,2.40
2022-10-29T18:59:34.341Z,4.15
2022-10-29T19:02:05.287Z,5.60
2022-10-29T19:04:36.209Z,11.63
2022-10-29T19:07:07.198Z,7.68
2022-10-29T19:09:37.934Z,6.43
2022-10-29T19:12:09.194Z,5.57
2022-10-29T19:14:42.646Z,4.72
2022-10-29T19:17:13.343Z,8.52
2022-10-29T19:19:44.345Z,5.88
2022-10-29T19:22:15.599Z,5.25
2022-10-29T19:24:46.913Z,7.80
2022-10-29T19:27:18.272Z,5.55
2022-10-29T19:29:52.159Z,6.55
2022-10-29T19:32:23.353Z,8.13
2022-10-29T19:34:54.363Z,5.68
2022-10-29T19:37:25.405Z,9.98
2022-10-29T19:39:56.328Z,6.25
2022-10-29T19:42:27.321Z,9.63
2022-10-29T19:45:00.949Z,7.35
2022-10-29T19:47:32.273Z,7.95
2022-10-29T19:50:03.386Z,8.90
2022-10-29T19:52:34.647Z,11.00
2022-10-29T19:55:05.813Z,7.95
2022-10-29T19:57:36.827Z,6.70
2022-10-29T20:00:16.694Z,6.82
2022-10-29T20:02:49.096Z,7.75
2022-10-29T20:05:20.315Z,8.57
2022-10-29T20:07:51.633Z,6.97
2022-10-29T20:10:24.301Z,9.55
2022-10-29T20:12:58.357Z,7.97
2022-10-29T20:15:32.351Z,10.65
2022-10-29T20:18:03.443Z,8.52
2022-10-29T20:20:35.028Z,8.68
2022-10-29T20:23:06.210Z,11.57
2022-10-29T20:25:37.776Z,5.50
2022-10-29T20:28:09.689Z,7.03
2022-10-29T20:30:43.521Z,12.57
2022-10-29T20:33:14.851Z,4.20
2022-10-29T20:35:46.092Z,5.40
2022-10-29T20:38:17.648Z,8.60
2022-10-29T20:40:53.184Z,14.55
2022-10-29T20:43:24.384Z,8.98
2022-10-29T20:46:03.539Z,11.55
2022-10-29T20:48:36.398Z,9.38
2022-10-29T20:51:07.795Z,7.60
2022-10-29T20:53:39.077Z,7.25
2022-10-29T20:56:13.324Z,6.90
2022-10-29T20:58:47.040Z,8.00
2022-10-29T21:01:23.165Z,8.05
2022-10-29T21:03:58.637Z,8.43
2022-10-29T21:06:31.059Z,7.18
2022-10-29T21:09:01.975Z,8.20
2022-10-29T21:11:33.032Z,9.90
2022-10-29T21:14:06.235Z,6.05
2022-10-29T21:16:39.689Z,7.93
2022-10-29T21:19:11.160Z,8.27
2022-10-29T21:21:42.094Z,5.65
2022-10-29T21:24:13.298Z,11.27
2022-10-29T21:26:44.060Z,7.53
2022-10-29T21:29:14.886Z,6.90
2022-10-29T21:31:51.820Z,7.43
2022-10-29T21:36:53.289Z,8.32
2022-10-29T21:39:24.303Z,5.80
2022-10-29T21:41:55.487Z,9.07
2022-10-29T21:44:26.987Z,6.55
2022-10-29T21:47:00.681Z,6.05
2022-10-29T21:49:31.871Z,9.48
2022-10-29T21:52:02.594Z,9.25
2022-10-29T21:54:33.289Z,6.80
2022-10-29T21:57:04.290Z,6.82
2022-10-29T21:59:35.620Z,6.50
2022-10-29T22:02:09.997Z,9.13
2022-10-29T22:04:41.455Z,7.88
2022-10-29T22:07:12.708Z,6.70
2022-10-29T22:09:43.761Z,8.77
2022-10-29T22:12:14.618Z,10.25
2022-10-29T22:14:45.612Z,8.02
2022-10-29T22:17:18.913Z,7.70
2022-10-29T22:19:49.813Z,10.00
2022-10-29T22:22:20.453Z,8.05
2022-10-29T22:24:51.255Z,7.65
2022-10-29T22:27:21.916Z,6.43
2022-10-29T22:29:54.507Z,8.93
2022-10-29T22:32:28.519Z,6.55
2022-10-29T22:34:59.373Z,6.13
2022-10-29T22:37:31.185Z,7.53
2022-10-29T22:40:02.541Z,7.93
2022-10-29T22:42:33.609Z,7.80
2022-10-29T22:45:04.856Z,8.50
2022-10-29T22:47:40.234Z,6.55
2022-10-29T22:50:12.241Z,7.47
2022-10-29T22:52:44.354Z,7.97
2022-10-29T22:55:16.190Z,5.03
2022-10-29T22:57:47.527Z,9.57
2022-10-29T23:00:18.887Z,6.78
2022-10-29T23:02:52.243Z,8.50
2022-10-29T23:05:22.983Z,8.48
2022-10-29T23:07:54.036Z,7.25
2022-10-29T23:10:25.309Z,6.95
2022-10-29T23:12:56.887Z,4.40
2022-10-29T23:15:28.086Z,6.03
2022-10-29T23:18:01.916Z,6.38
2022-10-29T23:20:32.924Z,5.45
2022-10-29T23:23:04.106Z,6.10
2022-10-29T23:25:37.929Z,6.55
2022-10-29T23:28:08.871Z,7.03
2022-10-29T23:30:39.693Z,9.20
2022-10-29T23:33:13.240Z,5.72
2022-10-29T23:35:44.395Z,6.22
2022-10-29T23:38:16.016Z,6.35
2022-10-29T23:40:47.577Z,5.95
2022-10-29T23:43:18.487Z,3.30
2022-10-29T23:45:49.202Z,5.82
2022-10-29T23:48:23.306Z,6.75
2022-10-29T23:50:54.683Z,6.05
2022-10-29T23:53:26.046Z,8.23
2022-10-29T23:55:57.028Z,7.65
2022-10-29T23:58:28.265Z,11.02
